createdAt,value
2018-07-14T00:00:37.796Z,13.87
2018-07-14T00:03:06.431Z,11.00
2018-07-14T00:05:35.097Z,13.43
2018-07-14T00:08:03.755Z,11.17
2018-07-14T00:10:32.306Z,11.83
2018-07-14T00:13:00.872Z,7.60
2018-07-14T00:15:29.433Z,8.67
2018-07-14T00:17:58.024Z,9.13
2018-07-14T00:20:26.536Z,10.33
2018-07-14T00:22:55.367Z,11.03
2018-07-14T00:25:29.307Z,11.23
2018-07-14T00:27:57.858Z,13.53
2018-07-14T00:30:26.383Z,25.07
2018-07-14T00:32:54.991Z,26.90
2018-07-14T00:35:23.554Z,16.90
2018-07-14T00:37:52.079Z,14.53
2018-07-14T00:40:20.671Z,14.90
2018-07-14T00:42:49.241Z,29.23
2018-07-14T00:45:17.849Z,28.00
2018-07-14T00:47:46.373Z,31.63
2018-07-14T00:50:14.967Z,22.83
2018-07-14T00:52:43.498Z,26.70
2018-07-14T00:55:12.049Z,20.87
2018-07-14T00:57:40.621Z,21.37
2018-07-14T01:00:09.249Z,21.83
2018-07-14T01:02:37.781Z,25.40
2018-07-14T01:05:06.395Z,40.10
2018-07-14T01:07:34.977Z,36.70
2018-07-14T01:10:03.226Z,20.30
2018-07-14T01:12:31.793Z,16.70
2018-07-14T01:15:00.375Z,13.37
2018-07-14T01:17:28.994Z,10.10
2018-07-14T01:19:58.002Z,8.50
2018-07-14T01:22:26.376Z,10.93
2018-07-14T01:24:54.919Z,13.87
2018-07-14T01:27:23.522Z,10.40
2018-07-14T01:29:52.186Z,18.50
2018-07-14T01:32:20.744Z,14.63
2018-07-14T01:34:49.281Z,13.70
2018-07-14T01:37:18.733Z,12.50
2018-07-14T01:39:47.272Z,9.90
2018-07-14T01:42:15.787Z,9.50
2018-07-14T01:44:44.030Z,11.93
2018-07-14T01:47:12.551Z,9.47
2018-07-14T01:49:41.104Z,12.83
2018-07-14T01:52:09.635Z,13.13
2018-07-14T01:54:38.312Z,54.27
2018-07-14T01:57:06.844Z,39.13
2018-07-14T01:59:35.374Z,26.23
2018-07-14T02:02:03.896Z,16.77
2018-07-14T02:04:32.469Z,23.03
2018-07-14T02:07:01.041Z,21.57
2018-07-14T02:09:29.565Z,20.43
2018-07-14T02:11:58.134Z,20.10
2018-07-14T02:14:26.704Z,10.47
2018-07-14T02:16:55.237Z,12.20
2018-07-14T02:19:23.749Z,11.27
2018-07-14T02:21:52.300Z,8.17
2018-07-14T02:24:20.802Z,15.93
2018-07-14T02:26:49.376Z,8.50
2018-07-14T02:29:18.005Z,11.73
2018-07-14T02:31:46.628Z,10.30
2018-07-14T02:34:15.152Z,8.50
2018-07-14T02:36:43.719Z,9.27
2018-07-14T02:39:12.225Z,10.30
2018-07-14T02:41:40.882Z,8.40
2018-07-14T02:44:09.449Z,7.27
2018-07-14T02:46:38.014Z,11.03
2018-07-14T02:49:06.562Z,11.27
2018-07-14T02:51:35.099Z,9.50
2018-07-14T02:54:03.616Z,9.93
2018-07-14T02:56:32.183Z,7.33
2018-07-14T02:59:00.736Z,7.27
2018-07-14T03:01:29.279Z,6.30
2018-07-14T03:03:57.876Z,8.67
2018-07-14T03:06:26.442Z,10.77
2018-07-14T03:08:54.970Z,9.60
2018-07-14T03:11:23.485Z,5.80
2018-07-14T03:13:52.236Z,15.93
2018-07-14T03:16:20.765Z,7.23
2018-07-14T03:18:49.011Z,8.37
2018-07-14T03:21:17.530Z,13.20
2018-07-14T03:23:46.055Z,9.27
2018-07-14T03:26:14.647Z,12.70
2018-07-14T03:28:43.250Z,10.60
2018-07-14T03:31:11.799Z,9.10
2018-07-14T03:33:40.348Z,9.70
2018-07-14T03:36:08.874Z,8.27
2018-07-14T03:38:37.410Z,10.60
2018-07-14T03:41:06.349Z,10.50
2018-07-14T03:43:34.890Z,9.73
2018-07-14T03:46:03.634Z,7.97
2018-07-14T03:48:32.169Z,11.97
2018-07-14T03:51:00.714Z,14.50
2018-07-14T03:53:29.269Z,10.37
2018-07-14T03:55:57.794Z,10.20
2018-07-14T03:58:26.372Z,10.00
2018-07-14T04:00:54.912Z,11.10
2018-07-14T04:03:23.454Z,10.07
2018-07-14T04:05:52.002Z,8.67
2018-07-14T04:08:20.583Z,9.10
2018-07-14T04:10:49.142Z,14.13
2018-07-14T04:13:17.666Z,17.73
2018-07-14T04:15:46.318Z,14.23
2018-07-14T04:18:14.857Z,13.47
2018-07-14T04:20:43.402Z,14.63
2018-07-14T04:23:11.955Z,42.07
2018-07-14T04:25:40.545Z,59.97
2018-07-14T04:28:09.068Z,37.80
2018-07-14T04:30:37.620Z,23.50
2018-07-14T04:33:06.131Z,43.37
2018-07-14T04:35:34.695Z,21.77
2018-07-14T04:38:03.214Z,17.77
2018-07-14T04:40:31.845Z,16.57
2018-07-14T04:43:00.354Z,9.70
2018-07-14T04:45:28.930Z,11.70
2018-07-14T04:47:57.517Z,12.40
2018-07-14T04:53:05.717Z,7.17
2018-07-14T04:55:34.275Z,8.57
2018-07-14T04:58:02.806Z,29.97
2018-07-14T05:00:31.356Z,52.30
2018-07-14T05:02:59.874Z,22.20
2018-07-14T05:05:28.662Z,10.23
2018-07-14T05:07:57.207Z,15.20
2018-07-14T05:10:25.749Z,14.33
2018-07-14T05:12:54.289Z,29.27
2018-07-14T05:15:22.928Z,13.73
2018-07-14T05:17:51.449Z,12.67
2018-07-14T05:20:20.012Z,11.30
2018-07-14T05:22:48.222Z,7.70
2018-07-14T05:25:16.762Z,7.60
2018-07-14T05:27:45.282Z,31.30
2018-07-14T05:30:13.837Z,48.93
2018-07-14T05:32:42.360Z,7.90
2018-07-14T05:35:10.907Z,6.60
2018-07-14T05:37:39.458Z,7.20
2018-07-14T05:40:08.023Z,9.13
2018-07-14T05:42:36.569Z,12.53
2018-07-14T05:45:05.194Z,8.20
2018-07-14T05:47:33.706Z,5.67
2018-07-14T05:50:02.246Z,6.20
2018-07-14T05:52:30.854Z,7.50
2018-07-14T05:54:59.393Z,7.33
2018-07-14T05:57:27.901Z,8.47
2018-07-14T05:59:56.446Z,7.90
2018-07-14T06:02:24.978Z,17.53
2018-07-14T06:04:53.598Z,12.10
2018-07-14T06:07:21.818Z,8.30
2018-07-14T06:09:50.359Z,8.50
2018-07-14T06:12:18.946Z,8.23
2018-07-14T06:14:47.457Z,16.33
2018-07-14T06:17:16.116Z,16.87
2018-07-14T06:19:44.590Z,12.80
2018-07-14T06:22:13.145Z,5.90
2018-07-14T06:24:41.669Z,5.67
2018-07-14T06:27:10.203Z,4.60
2018-07-14T06:29:38.733Z,7.07
2018-07-14T06:32:07.385Z,13.30
2018-07-14T06:34:35.843Z,5.97
2018-07-14T06:37:04.726Z,4.77
2018-07-14T06:39:33.256Z,5.87
2018-07-14T06:42:01.836Z,5.60
2018-07-14T06:44:30.434Z,5.50
2018-07-14T06:46:58.978Z,7.10
2018-07-14T06:49:27.494Z,4.67
2018-07-14T06:51:56.059Z,12.67
2018-07-14T06:54:24.625Z,4.43
2018-07-14T06:56:53.174Z,4.80
2018-07-14T06:59:21.683Z,11.73
2018-07-14T07:01:50.241Z,42.63
2018-07-14T07:04:18.775Z,9.80
2018-07-14T07:06:47.354Z,4.80
2018-07-14T07:09:16.390Z,4.30
2018-07-14T07:11:44.918Z,10.97
2018-07-14T07:14:13.523Z,6.03
2018-07-14T07:16:42.058Z,5.93
2018-07-14T07:19:10.629Z,5.20
2018-07-14T07:21:39.217Z,7.20
2018-07-14T07:24:07.745Z,6.30
2018-07-14T07:26:38.572Z,5.57
2018-07-14T07:29:07.338Z,4.47
2018-07-14T07:31:35.935Z,9.07
2018-07-14T07:34:05.316Z,3.67
2018-07-14T07:36:33.828Z,10.17
2018-07-14T07:39:02.381Z,17.20
2018-07-14T07:41:30.939Z,4.43
2018-07-14T07:43:59.163Z,10.07
2018-07-14T07:46:27.693Z,7.60
2018-07-14T07:48:56.375Z,8.70
2018-07-14T07:51:24.913Z,5.40
2018-07-14T07:53:53.442Z,5.10
2018-07-14T07:56:21.972Z,12.27
2018-07-14T07:58:50.771Z,7.27
2018-07-14T08:01:19.334Z,8.57
2018-07-14T08:03:47.881Z,5.93
2018-07-14T08:06:16.405Z,8.40
2018-07-14T08:08:45.284Z,11.97
2018-07-14T08:11:13.838Z,5.57
2018-07-14T08:13:42.366Z,8.53
2018-07-14T08:16:11.113Z,5.63
2018-07-14T08:18:39.611Z,6.60
2018-07-14T08:21:08.734Z,5.67
2018-07-14T08:23:37.545Z,7.60
2018-07-14T08:26:06.722Z,5.93
2018-07-14T08:28:35.283Z,5.50
2018-07-14T08:31:03.990Z,5.83
2018-07-14T08:33:32.551Z,3.93
2018-07-14T08:36:01.088Z,5.90
2018-07-14T08:38:29.642Z,4.60
2018-07-14T08:40:58.179Z,6.80
2018-07-14T08:43:26.742Z,12.00
2018-07-14T08:45:55.934Z,6.53
2018-07-14T08:48:24.467Z,4.20
2018-07-14T08:50:52.678Z,7.63
2018-07-14T08:53:21.466Z,4.10
2018-07-14T08:55:49.986Z,5.87
2018-07-14T08:58:18.648Z,4.63
2018-07-14T09:00:47.166Z,5.60
2018-07-14T09:03:15.703Z,3.37
2018-07-14T09:05:44.238Z,4.40
2018-07-14T09:08:12.813Z,3.87
2018-07-14T09:10:41.342Z,5.50
2018-07-14T09:13:09.945Z,5.40
2018-07-14T09:15:38.458Z,5.10
2018-07-14T09:18:07.006Z,3.87
2018-07-14T09:20:35.785Z,3.70
2018-07-14T09:23:04.367Z,7.53
2018-07-14T09:25:32.960Z,8.33
2018-07-14T09:28:01.501Z,6.50
2018-07-14T09:30:30.027Z,4.43
2018-07-14T09:32:58.591Z,7.90
2018-07-14T09:35:27.106Z,5.00
2018-07-14T09:37:55.916Z,5.20
2018-07-14T09:40:24.453Z,3.97
2018-07-14T09:42:52.955Z,8.00
2018-07-14T09:45:21.484Z,4.77
2018-07-14T09:47:50.038Z,4.70
2018-07-14T09:50:18.574Z,5.53
2018-07-14T09:52:47.106Z,4.33
2018-07-14T09:55:15.676Z,5.67
2018-07-14T09:57:44.175Z,3.53
2018-07-14T10:00:18.200Z,4.20
2018-07-14T10:02:46.710Z,4.50
2018-07-14T10:05:15.249Z,4.27
2018-07-14T10:07:43.783Z,4.60
2018-07-14T10:10:12.351Z,4.50
2018-07-14T10:12:40.906Z,3.60
2018-07-14T10:15:09.514Z,7.73
2018-07-14T10:17:38.035Z,3.90
2018-07-14T10:20:06.714Z,5.50
2018-07-14T10:22:35.225Z,4.07
2018-07-14T10:25:03.838Z,3.50
2018-07-14T10:27:32.343Z,5.40
2018-07-14T10:30:00.901Z,3.50
2018-07-14T10:32:29.446Z,10.43
2018-07-14T10:34:57.999Z,3.70
2018-07-14T10:37:26.503Z,4.23
2018-07-14T10:39:55.044Z,3.20
2018-07-14T10:42:23.577Z,4.00
2018-07-14T10:44:52.134Z,3.17
2018-07-14T10:47:20.646Z,4.57
2018-07-14T10:49:49.210Z,11.73
2018-07-14T10:52:17.734Z,3.43
2018-07-14T10:54:46.262Z,4.77
2018-07-14T10:57:14.756Z,4.00
2018-07-14T10:59:43.311Z,4.53
2018-07-14T11:02:11.838Z,7.13
2018-07-14T11:04:40.371Z,7.53
2018-07-14T11:07:08.945Z,4.43
2018-07-14T11:09:37.513Z,3.67
2018-07-14T11:12:06.067Z,4.10
2018-07-14T11:14:34.566Z,3.20
2018-07-14T11:17:03.114Z,6.30
2018-07-14T11:19:31.625Z,3.40
2018-07-14T11:22:00.185Z,6.07
2018-07-14T11:24:28.719Z,6.17
2018-07-14T11:26:57.233Z,3.67
2018-07-14T11:29:25.763Z,3.53
2018-07-14T11:31:54.293Z,4.20
2018-07-14T11:34:22.821Z,3.13
2018-07-14T11:36:51.579Z,4.70
2018-07-14T11:39:20.101Z,2.93
2018-07-14T11:41:48.680Z,3.10
2018-07-14T11:44:17.185Z,11.00
2018-07-14T11:46:45.702Z,3.23
2018-07-14T11:49:14.235Z,11.20
2018-07-14T11:51:42.806Z,3.17
2018-07-14T11:54:11.383Z,4.33
2018-07-14T11:56:39.880Z,3.60
2018-07-14T11:59:08.394Z,4.60
2018-07-14T12:01:36.935Z,4.50
2018-07-14T12:04:05.499Z,5.07
2018-07-14T12:06:34.139Z,10.57
2018-07-14T12:09:02.726Z,6.13
2018-07-14T12:11:31.269Z,8.50
2018-07-14T12:13:59.821Z,5.07
2018-07-14T12:16:28.351Z,9.13
2018-07-14T12:18:56.877Z,6.10
2018-07-14T12:21:25.418Z,6.80
2018-07-14T12:23:53.926Z,3.93
2018-07-14T12:26:22.511Z,8.43
2018-07-14T12:28:51.055Z,6.60
2018-07-14T12:31:19.616Z,5.03
2018-07-14T12:33:48.156Z,4.03
2018-07-14T12:36:16.686Z,5.53
2018-07-14T12:38:45.275Z,3.70
2018-07-14T12:41:13.938Z,3.73
2018-07-14T12:43:42.531Z,2.73
2018-07-14T12:46:11.089Z,3.40
2018-07-14T12:48:39.601Z,6.90
2018-07-14T12:51:08.134Z,2.60
2018-07-14T12:53:36.647Z,2.47
2018-07-14T12:56:05.258Z,3.80
2018-07-14T12:58:33.829Z,5.10
2018-07-14T13:01:02.385Z,3.40
2018-07-14T13:03:30.984Z,5.97
2018-07-14T13:05:59.594Z,3.80
2018-07-14T13:08:28.137Z,8.13
2018-07-14T13:10:56.654Z,3.73
2018-07-14T13:13:25.193Z,4.03
2018-07-14T13:15:53.702Z,4.30
2018-07-14T13:18:22.235Z,2.67
2018-07-14T13:20:50.749Z,5.30
2018-07-14T13:23:19.315Z,5.70
2018-07-14T13:25:48.243Z,3.60
2018-07-14T13:28:16.779Z,5.40
2018-07-14T13:30:45.371Z,3.47
2018-07-14T13:33:13.940Z,5.40
2018-07-14T13:35:42.491Z,4.60
2018-07-14T13:38:11.052Z,4.67
2018-07-14T13:40:39.602Z,3.73
2018-07-14T13:43:08.236Z,3.10
2018-07-14T13:45:36.792Z,4.37
2018-07-14T13:48:05.458Z,3.57
2018-07-14T13:50:36.315Z,4.70
2018-07-14T13:53:04.973Z,4.07
2018-07-14T13:55:33.798Z,3.57
2018-07-14T13:58:02.333Z,4.80
2018-07-14T14:00:30.910Z,5.00
2018-07-14T14:02:59.451Z,4.40
2018-07-14T14:05:29.531Z,3.77
2018-07-14T14:07:58.078Z,3.53
2018-07-14T14:10:26.594Z,4.50
2018-07-14T14:12:55.143Z,6.60
2018-07-14T14:15:23.668Z,4.33
2018-07-14T14:17:52.229Z,3.93
2018-07-14T14:20:20.742Z,6.43
2018-07-14T14:22:50.113Z,3.83
2018-07-14T14:25:18.629Z,4.20
2018-07-14T14:27:47.161Z,4.30
2018-07-14T14:30:15.713Z,4.00
2018-07-14T14:32:44.244Z,5.77
2018-07-14T14:35:12.759Z,4.67
2018-07-14T14:37:41.295Z,4.73
2018-07-14T14:40:09.863Z,4.03
2018-07-14T14:42:38.463Z,3.90
2018-07-14T14:45:07.341Z,3.77
2018-07-14T14:47:35.906Z,4.90
2018-07-14T14:50:04.889Z,7.40
2018-07-14T14:52:33.447Z,4.27
2018-07-14T14:55:02.124Z,4.10
2018-07-14T14:57:30.689Z,6.07
2018-07-14T14:59:59.205Z,5.70
2018-07-14T15:02:27.742Z,5.70
2018-07-14T15:04:56.295Z,5.13
2018-07-14T15:07:24.908Z,3.57
2018-07-14T15:09:53.458Z,3.37
2018-07-14T15:12:21.985Z,5.80
2018-07-14T15:14:50.519Z,5.37
2018-07-14T15:17:19.045Z,7.20
2018-07-14T15:19:47.699Z,4.00
2018-07-14T15:22:16.245Z,5.30
2018-07-14T15:24:45.186Z,7.43
2018-07-14T15:27:13.736Z,6.10
2018-07-14T15:29:42.322Z,7.03
2018-07-14T15:32:11.126Z,11.33
2018-07-14T15:34:40.001Z,6.10
2018-07-14T15:37:09.154Z,5.80
2018-07-14T15:39:38.209Z,3.33
2018-07-14T15:42:07.303Z,4.00
2018-07-14T15:44:36.498Z,6.60
2018-07-14T15:47:05.381Z,4.70
2018-07-14T15:49:33.977Z,7.70
2018-07-14T15:52:02.634Z,4.93
2018-07-14T15:54:31.406Z,6.07
2018-07-14T15:56:59.933Z,7.17
2018-07-14T15:59:28.597Z,6.40
2018-07-14T16:01:57.309Z,10.93
2018-07-14T16:04:25.952Z,6.50
2018-07-14T16:06:54.618Z,8.00
2018-07-14T16:09:23.430Z,6.47
2018-07-14T16:11:52.045Z,10.67
2018-07-14T16:14:20.601Z,7.87
2018-07-14T16:16:49.201Z,10.07
2018-07-14T16:19:17.737Z,9.50
2018-07-14T16:21:46.313Z,6.43
2018-07-14T16:24:14.977Z,4.27
2018-07-14T16:26:43.527Z,4.77
2018-07-14T16:29:11.803Z,8.33
2018-07-14T16:31:40.347Z,8.53
2018-07-14T16:34:09.038Z,7.10
2018-07-14T16:36:37.656Z,6.40
2018-07-14T16:39:08.610Z,4.70
2018-07-14T16:41:37.255Z,4.90
2018-07-14T16:44:05.837Z,4.53
2018-07-14T16:46:34.608Z,9.60
2018-07-14T16:49:03.339Z,3.23
2018-07-14T16:51:32.106Z,4.93
2018-07-14T16:54:01.194Z,3.60
2018-07-14T16:56:30.023Z,4.10
2018-07-14T16:58:58.582Z,17.10
2018-07-14T17:01:27.289Z,6.73
2018-07-14T17:03:56.011Z,7.37
2018-07-14T17:06:24.800Z,9.50
2018-07-14T17:08:53.354Z,7.23
2018-07-14T17:11:21.895Z,4.13
2018-07-14T17:13:50.433Z,8.50
2018-07-14T17:16:19.251Z,8.07
2018-07-14T17:18:47.769Z,4.73
2018-07-14T17:21:16.342Z,5.70
2018-07-14T17:23:44.858Z,32.10
2018-07-14T17:26:13.390Z,26.17
2018-07-14T17:28:41.960Z,14.40
2018-07-14T17:31:10.543Z,8.50
2018-07-14T17:33:39.166Z,10.30
2018-07-14T17:36:07.732Z,6.40
2018-07-14T17:38:36.251Z,8.17
2018-07-14T17:41:04.804Z,6.03
2018-07-14T17:43:33.347Z,5.30
2018-07-14T17:46:01.900Z,9.20
2018-07-14T17:48:30.529Z,6.63
2018-07-14T17:50:59.216Z,4.83
2018-07-14T17:53:27.770Z,6.83
2018-07-14T17:55:56.325Z,6.70
2018-07-14T17:58:24.860Z,8.83
2018-07-14T18:00:53.673Z,8.67
2018-07-14T18:03:22.190Z,7.53
2018-07-14T18:05:50.732Z,7.27
2018-07-14T18:08:19.287Z,6.07
2018-07-14T18:10:47.929Z,9.67
2018-07-14T18:13:16.458Z,8.10
2018-07-14T18:15:45.031Z,9.23
2018-07-14T18:18:13.546Z,12.37
2018-07-14T18:20:42.066Z,9.20
2018-07-14T18:23:10.609Z,9.20
2018-07-14T18:25:39.239Z,10.27
2018-07-14T18:28:07.779Z,5.90
2018-07-14T18:30:36.284Z,8.20
2018-07-14T18:33:04.852Z,9.13
2018-07-14T18:35:33.371Z,8.40
2018-07-14T18:38:01.909Z,8.57
2018-07-14T18:40:30.425Z,8.13
2018-07-14T18:42:59.083Z,13.50
2018-07-14T18:45:27.681Z,14.50
2018-07-14T18:47:56.272Z,13.33
2018-07-14T18:50:24.833Z,12.20
2018-07-14T18:52:53.417Z,18.17
2018-07-14T18:55:21.945Z,10.17
2018-07-14T18:57:50.718Z,11.70
2018-07-14T19:00:19.253Z,9.70
2018-07-14T19:02:47.805Z,10.20
2018-07-14T19:05:16.340Z,9.80
2018-07-14T19:07:44.963Z,9.77
2018-07-14T19:10:13.478Z,11.17
2018-07-14T19:12:41.693Z,11.63
2018-07-14T19:15:10.411Z,13.10
2018-07-14T19:17:38.977Z,13.27
2018-07-14T19:20:07.811Z,10.87
2018-07-14T19:22:36.343Z,11.47
2018-07-14T19:25:04.929Z,6.40
2018-07-14T19:27:33.465Z,8.53
2018-07-14T19:30:02.010Z,8.43
2018-07-14T19:32:30.545Z,7.03
2018-07-14T19:34:59.094Z,11.53
2018-07-14T19:37:27.627Z,7.67
2018-07-14T19:39:56.213Z,6.90
2018-07-14T19:42:25.023Z,9.13
2018-07-14T19:44:54.924Z,6.27
2018-07-14T19:47:23.626Z,8.07
2018-07-14T19:49:52.175Z,8.90
2018-07-14T19:52:20.892Z,7.90
2018-07-14T19:54:49.577Z,33.10
2018-07-14T19:57:18.186Z,29.00
2018-07-14T19:59:46.841Z,14.40
2018-07-14T20:02:15.363Z,10.30
2018-07-14T20:04:44.013Z,12.00
2018-07-14T20:07:12.779Z,9.10
2018-07-14T20:09:41.581Z,7.00
2018-07-14T20:12:10.393Z,6.70
2018-07-14T20:14:38.931Z,10.40
2018-07-14T20:17:07.706Z,8.80
2018-07-14T20:19:36.332Z,8.03
2018-07-14T20:22:04.868Z,10.37
2018-07-14T20:24:33.643Z,6.87
2018-07-14T20:27:02.192Z,7.00
2018-07-14T20:29:30.991Z,8.03
2018-07-14T20:31:59.570Z,7.10
2018-07-14T20:34:28.189Z,10.77
2018-07-14T20:36:56.519Z,8.00
2018-07-14T20:39:25.071Z,8.10
2018-07-14T20:41:53.770Z,10.13
2018-07-14T20:44:22.279Z,7.50
2018-07-14T20:46:50.831Z,8.40
2018-07-14T20:49:19.389Z,12.27
2018-07-14T20:51:48.122Z,7.97
2018-07-14T20:54:16.827Z,9.63
2018-07-14T20:56:45.375Z,10.17
2018-07-14T20:59:14.021Z,11.90
2018-07-14T21:01:42.638Z,23.40
2018-07-14T21:04:11.191Z,17.30
2018-07-14T21:06:39.749Z,12.03
2018-07-14T21:09:08.433Z,13.73
2018-07-14T21:11:36.971Z,15.30
2018-07-14T21:14:05.710Z,11.63
2018-07-14T21:16:34.258Z,12.77
2018-07-14T21:19:03.073Z,8.87
2018-07-14T21:21:31.778Z,8.20
2018-07-14T21:24:00.543Z,9.80
2018-07-14T21:26:29.219Z,8.77
2018-07-14T21:28:57.814Z,9.50
2018-07-14T21:31:26.503Z,8.40
2018-07-14T21:33:55.122Z,8.17
2018-07-14T21:36:23.771Z,9.40
2018-07-14T21:38:52.437Z,8.77
2018-07-14T21:41:21.115Z,8.40
2018-07-14T21:43:49.918Z,7.70
2018-07-14T21:46:19.248Z,16.50
2018-07-14T21:48:48.569Z,10.57
2018-07-14T21:51:17.262Z,10.43
2018-07-14T21:53:46.012Z,8.23
2018-07-14T21:56:14.729Z,11.50
2018-07-14T21:58:43.338Z,9.73
2018-07-14T22:01:17.469Z,12.70
2018-07-14T22:03:46.166Z,11.37
2018-07-14T22:06:14.714Z,14.40
2018-07-14T22:08:43.548Z,13.10
2018-07-14T22:11:12.234Z,15.73
2018-07-14T22:13:40.945Z,13.80
2018-07-14T22:16:09.786Z,13.33
2018-07-14T22:18:38.485Z,13.20
2018-07-14T22:21:07.091Z,14.57
2018-07-14T22:23:35.679Z,12.03
2018-07-14T22:26:04.240Z,14.10
2018-07-14T22:28:32.869Z,13.20
2018-07-14T22:31:01.450Z,15.00
2018-07-14T22:33:29.974Z,15.37
2018-07-14T22:35:58.551Z,13.87
2018-07-14T22:38:27.099Z,10.60
2018-07-14T22:40:55.651Z,15.60
2018-07-14T22:43:24.190Z,15.40
2018-07-14T22:45:52.757Z,18.60
2018-07-14T22:48:21.466Z,16.17
2018-07-14T22:50:50.025Z,15.73
2018-07-14T22:53:18.580Z,15.77
2018-07-14T22:55:47.131Z,17.90
2018-07-14T22:58:15.649Z,14.97
2018-07-14T23:00:44.204Z,17.10
2018-07-14T23:03:12.726Z,18.37
2018-07-14T23:05:41.286Z,16.47
2018-07-14T23:08:09.833Z,14.93
2018-07-14T23:10:38.390Z,17.03
2018-07-14T23:13:06.913Z,17.70
2018-07-14T23:15:35.450Z,15.33
2018-07-14T23:18:04.113Z,15.23
2018-07-14T23:20:32.671Z,13.40
2018-07-14T23:23:01.190Z,16.20
2018-07-14T23:25:29.730Z,17.97
2018-07-14T23:27:58.237Z,16.63
2018-07-14T23:30:26.875Z,12.87
2018-07-14T23:32:55.402Z,17.50
2018-07-14T23:35:23.948Z,11.53
2018-07-14T23:37:52.491Z,12.33
2018-07-14T23:40:21.034Z,18.90
2018-07-14T23:42:49.579Z,13.80
2018-07-14T23:45:18.102Z,13.33
2018-07-14T23:47:46.654Z,12.60
2018-07-14T23:50:15.178Z,17.63
2018-07-14T23:52:43.729Z,14.27
2018-07-14T23:55:12.288Z,15.17
2018-07-14T23:57:40.850Z,12.30
